Time,TemperatureF,DewpointF,PressureIn,WindDirection,WindDirectionDegrees,WindSpeedMPH,WindSpeedGustMPH,Humidity,HourlyPrecipIn,Conditions,Clouds,dailyrainin,SoftwareType,DateUTC
2013-05-26 00:01:00,46.2,45.9,29.99,NNW,328,0.0,0.0,99,0.00,,,0.00,Wunderground v.1.15,2013-05-26 07:01:00,
2013-05-26 00:06:00,46.1,46.1,29.99,NNW,328,0.0,0.0,100,0.00,,,0.00,Wunderground v.1.15,2013-05-26 07:06:00,
2013-05-26 00:11:00,46.0,46.0,29.99,NNW,328,0.0,0.0,100,0.00,,,0.00,Wunderground v.1.15,2013-05-26 07:11:00,
2013-05-26 00:16:00,45.8,45.8,29.99,NNW,328,0.0,0.0,100,0.00,,,0.00,Wunderground v.1.15,2013-05-26 07:16:00,
2013-05-26 00:21:00,45.5,45.2,29.99,NNW,328,0.0,0.0,99,0.00,,,0.00,Wunderground v.1.15,2013-05-26 07:21:00,
2013-05-26 00:26:00,45.4,45.1,29.99,NNW,328,0.0,0.0,99,0.00,,,0.00,Wunderground v.1.15,2013-05-26 07:26:00,
2013-05-26 00:31:00,45.2,45.2,29.99,NNW,328,0.0,0.0,100,0.00,,,0.00,Wunderground v.1.15,2013-05-26 07:31:00,
2013-05-26 00:36:00,45.1,45.1,29.99,NNW,328,0.0,0.0,100,0.00,,,0.00,Wunderground v.1.15,2013-05-26 07:36:00,
2013-05-26 00:41:00,44.9,44.9,29.99,NNW,328,0.0,0.0,100,0.00,,,0.00,Wunderground v.1.15,2013-05-26 07:41:00,
2013-05-26 00:46:00,44.8,44.8,29.99,NNW,328,0.0,0.0,100,0.00,,,0.00,Wunderground v.1.15,2013-05-26 07:46:00,
2013-05-26 00:51:00,44.6,44.6,29.99,NNW,328,0.0,0.0,100,0.00,,,0.00,Wunderground v.1.15,2013-05-26 07:51:00,
2013-05-26 00:56:00,44.5,44.5,29.99,NNW,328,0.0,0.0,100,0.00,,,0.00,Wunderground v.1.15,2013-05-26 07:56:00,
2013-05-26 01:01:00,44.3,44.3,29.99,NNW,328,0.0,0.0,100,0.00,,,0.00,Wunderground v.1.15,2013-05-26 08:01:00,
2013-05-26 01:06:00,44.2,44.2,29.99,NNW,328,0.0,0.0,100,0.00,,,0.00,Wunderground v.1.15,2013-05-26 08:06:00,
2013-05-26 01:11:00,44.1,44.1,29.99,NNW,328,0.0,0.0,100,0.00,,,0.00,Wunderground v.1.15,2013-05-26 08:11:00,
2013-05-26 01:16:00,43.9,43.9,29.98,NNW,328,0.0,0.0,100,0.00,,,0.00,Wunderground v.1.15,2013-05-26 08:16:00,
2013-05-26 01:21:00,43.8,43.8,29.98,NNW,328,0.0,0.0,100,0.00,,,0.00,Wunderground v.1.15,2013-05-26 08:21:00,
2013-05-26 01:26:00,43.8,43.8,29.98,NNW,328,0.0,0.0,100,0.00,,,0.00,Wunderground v.1.15,2013-05-26 08:26:00,
2013-05-26 01:31:00,43.8,43.8,29.98,NNW,328,0.0,0.0,100,0.00,,,0.00,Wunderground v.1.15,2013-05-26 08:31:00,
2013-05-26 01:36:00,43.8,43.8,29.98,NNW,328,0.0,0.0,100,0.00,,,0.00,Wunderground v.1.15,2013-05-26 08:36:00,
2013-05-26 01:41:00,43.8,43.8,29.98,NNW,328,0.0,0.0,100,0.00,,,0.00,Wunderground v.1.15,2013-05-26 08:41:00,
2013-05-26 01:46:00,43.6,43.6,29.98,NNW,328,0.0,0.0,100,0.00,,,0.00,Wunderground v.1.15,2013-05-26 08:46:00,
2013-05-26 01:51:00,43.8,43.8,29.98,NNW,328,0.0,0.0,100,0.00,,,0.00,Wunderground v.1.15,2013-05-26 08:51:00,
2013-05-26 01:56:00,43.8,43.8,29.98,NNW,328,0.0,0.0,100,0.00,,,0.00,Wunderground v.1.15,2013-05-26 08:56:00,
2013-05-26 02:01:00,43.8,43.8,29.99,NNW,328,0.0,0.0,100,0.00,,,0.00,Wunderground v.1.15,2013-05-26 09:01:00,
2013-05-26 02:06:00,43.9,43.9,29.99,NNW,328,0.0,0.0,100,0.00,,,0.00,Wunderground v.1.15,2013-05-26 09:06:00,
2013-05-26 02:11:00,43.9,43.9,29.99,NNW,328,0.0,0.0,100,0.00,,,0.00,Wunderground v.1.15,2013-05-26 09:11:00,
2013-05-26 02:16:00,43.9,43.9,29.99,NNW,328,0.0,0.0,100,0.00,,,0.00,Wunderground v.1.15,2013-05-26 09:16:00,
2013-05-26 02:21:00,44.1,44.1,29.99,NNW,328,0.0,0.0,100,0.00,,,0.00,Wunderground v.1.15,2013-05-26 09:21:00,
2013-05-26 02:26:00,44.1,44.1,29.99,NNW,328,0.0,0.0,100,0.00,,,0.00,Wunderground v.1.15,2013-05-26 09:26:00,
2013-05-26 02:31:00,43.9,43.9,29.98,NNW,328,0.0,0.0,100,0.00,,,0.00,Wunderground v.1.15,2013-05-26 09:31:00,
2013-05-26 02:36:00,43.9,43.9,29.98,NNW,328,0.0,0.0,100,0.00,,,0.00,Wunderground v.1.15,2013-05-26 09:36:00,
2013-05-26 02:41:00,43.8,43.8,29.98,NNW,328,0.0,0.0,100,0.00,,,0.00,Wunderground v.1.15,2013-05-26 09:41:00,
2013-05-26 02:46:00,43.6,43.6,29.98,NNW,328,0.0,0.0,100,0.00,,,0.00,Wunderground v.1.15,2013-05-26 09:46:00,
2013-05-26 02:51:00,43.6,43.6,29.98,NNW,328,0.0,0.0,100,0.00,,,0.00,Wunderground v.1.15,2013-05-26 09:51:00,
2013-05-26 02:56:00,43.8,43.8,29.98,NNW,328,0.0,0.0,100,0.00,,,0.00,Wunderground v.1.15,2013-05-26 09:56:00,
2013-05-26 03:01:00,43.8,43.8,29.98,NNW,328,0.0,0.0,100,0.00,,,0.00,Wunderground v.1.15,2013-05-26 10:01:00,
2013-05-26 03:06:00,44.1,44.1,29.98,NNW,328,0.0,0.0,100,0.00,,,0.00,Wunderground v.1.15,2013-05-26 10:06:00,
2013-05-26 03:11:00,44.2,44.2,29.98,NNW,328,0.0,0.0,100,0.00,,,0.00,Wunderground v.1.15,2013-05-26 10:11:00,
2013-05-26 03:16:00,44.6,44.6,29.98,NNW,328,0.0,0.0,100,0.00,,,0.00,Wunderground v.1.15,2013-05-26 10:16:00,
2013-05-26 03:21:00,45.1,45.1,29.98,NNW,328,0.0,0.0,100,0.00,,,0.00,Wunderground v.1.15,2013-05-26 10:21:00,
2013-05-26 03:26:00,45.7,45.7,29.98,NNW,328,0.0,0.0,100,0.00,,,0.00,Wunderground v.1.15,2013-05-26 10:26:00,
2013-05-26 03:32:00,45.8,45.8,29.98,NNW,328,0.0,0.0,100,0.00,,,0.00,Wunderground v.1.15,2013-05-26 10:32:00,
2013-05-26 03:36:00,46.0,46.0,29.98,NNW,328,0.0,0.0,100,0.00,,,0.00,Wunderground v.1.15,2013-05-26 10:36:00,
2013-05-26 03:41:00,46.0,46.0,29.98,NNW,328,0.0,0.0,100,0.00,,,0.00,Wunderground v.1.15,2013-05-26 10:41:00,
2013-05-26 03:46:00,46.1,46.1,29.98,NNW,328,0.0,0.0,100,0.00,,,0.00,Wunderground v.1.15,2013-05-26 10:46:00,
2013-05-26 03:51:00,46.4,46.4,29.98,NNW,328,0.0,0.0,100,0.00,,,0.00,Wunderground v.1.15,2013-05-26 10:51:00,
2013-05-26 03:56:00,46.5,46.5,29.98,NNW,328,0.0,0.0,100,0.00,,,0.00,Wunderground v.1.15,2013-05-26 10:56:00,
2013-05-26 04:02:00,46.5,46.5,29.98,NNW,328,0.0,0.0,100,0.00,,,0.00,Wunderground v.1.15,2013-05-26 11:02:00,
2013-05-26 04:07:00,46.5,46.5,29.98,NNW,328,0.0,0.0,100,0.00,,,0.00,Wunderground v.1.15,2013-05-26 11:07:00,
2013-05-26 04:11:00,46.2,46.2,29.98,NNW,328,0.0,0.0,100,0.00,,,0.00,Wunderground v.1.15,2013-05-26 11:11:00,
2013-05-26 04:17:00,46.0,46.0,29.98,NNW,328,0.0,0.0,100,0.00,,,0.00,Wunderground v.1.15,2013-05-26 11:17:00,
2013-05-26 04:22:00,45.7,45.7,29.98,NNW,328,0.0,0.0,100,0.00,,,0.00,Wunderground v.1.15,2013-05-26 11:22:00,
2013-05-26 04:27:00,45.4,45.4,29.98,NNW,328,0.0,0.0,100,0.00,,,0.00,Wunderground v.1.15,2013-05-26 11:27:00,
2013-05-26 04:32:00,45.1,45.1,29.98,NNW,328,0.0,0.0,100,0.00,,,0.00,Wunderground v.1.15,2013-05-26 11:32:00,
2013-05-26 04:37:00,44.8,44.8,29.98,NNW,328,0.0,0.0,100,0.00,,,0.00,Wunderground v.1.15,2013-05-26 11:37:00,
2013-05-26 04:42:00,44.5,44.5,29.98,NNW,328,0.0,0.0,100,0.00,,,0.00,Wunderground v.1.15,2013-05-26 11:42:00,
2013-05-26 04:47:00,44.2,44.2,29.98,NNW,328,0.0,0.0,100,0.00,,,0.00,Wunderground v.1.15,2013-05-26 11:47:00,
2013-05-26 04:52:00,44.1,44.1,29.98,NNW,328,0.0,0.0,100,0.00,,,0.00,Wunderground v.1.15,2013-05-26 11:52:00,
2013-05-26 04:57:00,44.1,44.1,29.98,NNW,328,0.0,0.0,100,0.00,,,0.00,Wunderground v.1.15,2013-05-26 11:57:00,
2013-05-26 05:02:00,44.1,44.1,29.98,NNW,328,0.0,0.0,100,0.00,,,0.00,Wunderground v.1.15,2013-05-26 12:02:00,
2013-05-26 05:07:00,43.9,43.9,29.98,NNW,328,0.0,0.0,100,0.00,,,0.00,Wunderground v.1.15,2013-05-26 12:07:00,
2013-05-26 05:12:00,43.8,43.8,29.98,NNW,328,0.0,0.0,100,0.00,,,0.00,Wunderground v.1.15,2013-05-26 12:12:00,
2013-05-26 05:17:00,43.6,43.6,29.97,NNW,328,0.0,0.0,100,0.00,,,0.00,Wunderground v.1.15,2013-05-26 12:17:00,
2013-05-26 05:22:00,43.5,43.5,29.97,NNW,328,0.0,0.0,100,0.00,,,0.00,Wunderground v.1.15,2013-05-26 12:22:00,
2013-05-26 05:27:00,43.5,43.5,29.97,NNW,328,0.0,0.0,100,0.00,,,0.00,Wunderground v.1.15,2013-05-26 12:27:00,
2013-05-26 05:32:00,43.3,43.3,29.97,NNW,328,0.0,0.0,100,0.00,,,0.00,Wunderground v.1.15,2013-05-26 12:32:00,
2013-05-26 05:37:00,43.3,43.3,29.97,NNW,328,0.0,0.0,100,0.00,,,0.00,Wunderground v.1.15,2013-05-26 12:37:00,
2013-05-26 05:42:00,43.2,43.2,29.97,NNW,328,0.0,0.0,100,0.00,,,0.00,Wunderground v.1.15,2013-05-26 12:42:00,
2013-05-26 05:46:00,43.1,43.1,29.98,NNW,328,0.0,0.0,100,0.00,,,0.00,Wunderground v.1.15,2013-05-26 12:46:00,
2013-05-26 05:51:00,42.9,42.9,29.98,NNW,328,0.0,0.0,100,0.00,,,0.00,Wunderground v.1.15,2013-05-26 12:51:00,
2013-05-26 05:56:00,42.8,42.8,29.98,NNW,328,0.0,0.0,100,0.00,,,0.00,Wunderground v.1.15,2013-05-26 12:56:00,
2013-05-26 06:01:00,42.8,42.8,29.98,NNW,328,0.0,0.0,100,0.00,,,0.00,Wunderground v.1.15,2013-05-26 13:01:00,
2013-05-26 06:06:00,42.6,42.6,29.98,NNW,328,0.0,0.0,100,0.00,,,0.00,Wunderground v.1.15,2013-05-26 13:06:00,
2013-05-26 06:11:00,42.5,42.5,29.98,NNW,328,0.0,0.0,100,0.00,,,0.00,Wunderground v.1.15,2013-05-26 13:11:00,
2013-05-26 06:16:00,42.3,42.3,29.98,NNW,328,0.0,0.0,100,0.00,,,0.00,Wunderground v.1.15,2013-05-26 13:16:00,
2013-05-26 06:22:00,42.5,42.5,29.98,NNW,328,0.0,0.0,100,0.00,,,0.00,Wunderground v.1.15,2013-05-26 13:22:00,
2013-05-26 06:27:00,42.5,42.5,29.98,NNW,328,0.0,0.0,100,0.00,,,0.00,Wunderground v.1.15,2013-05-26 13:27:00,
2013-05-26 06:32:00,42.8,42.8,29.98,NNW,328,0.0,0.0,100,0.00,,,0.00,Wunderground v.1.15,2013-05-26 13:32:00,
2013-05-26 06:37:00,42.9,42.9,29.98,NNW,328,0.0,0.0,100,0.00,,,0.00,Wunderground v.1.15,2013-05-26 13:37:00,
2013-05-26 06:42:00,43.2,43.2,29.98,NNW,328,0.0,0.0,100,0.00,,,0.00,Wunderground v.1.15,2013-05-26 13:42:00,
2013-05-26 06:47:00,43.5,43.5,29.99,NNW,328,0.0,0.0,100,0.00,,,0.00,Wunderground v.1.15,2013-05-26 13:47:00,
2013-05-26 06:52:00,43.9,43.9,29.99,NNW,328,0.0,0.0,100,0.00,,,0.00,Wunderground v.1.15,2013-05-26 13:52:00,
2013-05-26 06:57:00,44.1,44.1,29.99,NNW,328,0.0,0.0,100,0.00,,,0.00,Wunderground v.1.15,2013-05-26 13:57:00,
2013-05-26 07:02:00,44.2,44.2,29.99,NNW,328,0.0,0.0,100,0.00,,,0.00,Wunderground v.1.15,2013-05-26 14:02:00,
2013-05-26 07:07:00,44.6,44.6,29.99,NNW,328,0.0,0.0,100,0.00,,,0.00,Wunderground v.1.15,2013-05-26 14:07:00,
2013-05-26 07:12:00,45.2,45.2,29.99,NNW,328,0.0,0.0,100,0.00,,,0.00,Wunderground v.1.15,2013-05-26 14:12:00,
2013-05-26 07:17:00,45.8,45.8,30.00,NNW,328,0.0,0.0,100,0.00,,,0.00,Wunderground v.1.15,2013-05-26 14:17:00,
2013-05-26 07:22:00,46.1,46.1,30.00,NNW,328,0.0,0.0,100,0.00,,,0.00,Wunderground v.1.15,2013-05-26 14:22:00,
2013-05-26 07:27:00,46.5,46.5,30.00,NNW,328,0.0,0.0,100,0.00,,,0.00,Wunderground v.1.15,2013-05-26 14:27:00,
2013-05-26 07:32:00,47.0,47.0,30.00,NNE,14,0.0,0.0,100,0.00,,,0.00,Wunderground v.1.15,2013-05-26 14:32:00,
2013-05-26 07:37:00,47.9,47.9,30.00,NNE,14,0.0,0.0,100,0.00,,,0.00,Wunderground v.1.15,2013-05-26 14:37:00,
2013-05-26 07:42:00,48.9,48.9,30.00,NNE,14,0.0,0.0,100,0.00,,,0.00,Wunderground v.1.15,2013-05-26 14:42:00,
2013-05-26 07:47:00,49.9,49.9,30.00,NNE,15,0.0,0.0,100,0.00,,,0.00,Wunderground v.1.15,2013-05-26 14:47:00,
2013-05-26 07:52:00,50.5,50.5,30.00,NNE,16,0.0,0.0,100,0.00,,,0.00,Wunderground v.1.15,2013-05-26 14:52:00,
2013-05-26 07:57:00,51.0,51.0,30.00,NNE,16,0.0,0.0,100,0.00,,,0.00,Wunderground v.1.15,2013-05-26 14:57:00,
2013-05-26 08:02:00,51.4,51.4,30.01,East,86,0.0,0.0,100,0.00,,,0.00,Wunderground v.1.15,2013-05-26 15:02:00,
2013-05-26 08:07:00,52.3,52.0,30.01,East,86,0.0,0.0,99,0.00,,,0.00,Wunderground v.1.15,2013-05-26 15:07:00,
2013-05-26 08:12:00,53.1,52.3,30.01,East,86,0.0,0.0,97,0.00,,,0.00,Wunderground v.1.15,2013-05-26 15:12:00,
2013-05-26 08:17:00,53.9,52.2,30.01,East,86,0.0,0.0,94,0.00,,,0.00,Wunderground v.1.15,2013-05-26 15:17:00,
2013-05-26 08:22:00,54.5,52.2,30.01,East,86,0.0,0.0,92,0.00,,,0.00,Wunderground v.1.15,2013-05-26 15:22:00,
2013-05-26 08:27:00,55.3,52.4,30.01,SSW,199,0.0,0.0,90,0.00,,,0.00,Wunderground v.1.15,2013-05-26 15:27:00,
2013-05-26 08:32:00,55.9,52.4,30.01,NW,304,0.0,0.0,88,0.00,,,0.00,Wunderground v.1.15,2013-05-26 15:32:00,
2013-05-26 08:37:00,56.7,52.2,30.01,West,269,0.0,1.0,85,0.00,,,0.00,Wunderground v.1.15,2013-05-26 15:37:00,
2013-05-26 08:42:00,57.5,52.0,30.01,North,351,0.0,5.0,82,0.00,,,0.00,Wunderground v.1.15,2013-05-26 15:42:00,
2013-05-26 08:47:00,57.5,51.4,30.01,NNE,31,0.0,5.0,80,0.00,,,0.00,Wunderground v.1.15,2013-05-26 15:47:00,
2013-05-26 08:52:00,58.1,51.6,30.01,SE,146,3.0,3.0,79,0.00,,,0.00,Wunderground v.1.15,2013-05-26 15:52:00,
2013-05-26 08:57:00,58.1,51.3,30.01,NNW,334,1.0,3.0,78,0.00,,,0.00,Wunderground v.1.15,2013-05-26 15:57:00,
2013-05-26 09:02:00,58.4,51.6,30.02,SW,227,1.0,1.0,78,0.00,,,0.00,Wunderground v.1.15,2013-05-26 16:02:00,
2013-05-26 09:07:00,58.0,50.8,30.02,NW,312,3.0,5.0,77,0.00,,,0.00,Wunderground v.1.15,2013-05-26 16:07:00,
2013-05-26 09:12:00,57.3,51.2,30.02,NW,312,2.0,2.0,80,0.00,,,0.00,Wunderground v.1.15,2013-05-26 16:12:00,
2013-05-26 09:17:00,57.0,50.5,30.03,NNE,25,1.0,9.0,79,0.00,,,0.00,Wunderground v.1.15,2013-05-26 16:17:00,
2013-05-26 09:22:00,57.2,51.4,30.03,NNW,342,0.0,2.0,81,0.00,,,0.00,Wunderground v.1.15,2013-05-26 16:22:00,
2013-05-26 09:27:00,57.6,51.8,30.03,NNE,20,3.0,5.0,81,0.00,,,0.00,Wunderground v.1.15,2013-05-26 16:27:00,
2013-05-26 09:32:00,57.5,51.4,30.02,North,353,1.0,4.0,80,0.00,,,0.00,Wunderground v.1.15,2013-05-26 16:32:00,
2013-05-26 09:37:00,57.5,51.7,30.02,NNW,338,1.0,7.0,81,0.00,,,0.00,Wunderground v.1.15,2013-05-26 16:37:00,
2013-05-26 09:42:00,57.8,51.7,30.02,ESE,110,1.0,2.0,80,0.00,,,0.00,Wunderground v.1.15,2013-05-26 16:42:00,
2013-05-26 09:47:00,58.0,51.9,30.02,NNW,345,0.0,4.0,80,0.00,,,0.00,Wunderground v.1.15,2013-05-26 16:47:00,
2013-05-26 09:52:00,58.6,52.4,30.02,ESE,102,0.0,4.0,80,0.00,,,0.00,Wunderground v.1.15,2013-05-26 16:52:00,
2013-05-26 09:57:00,59.5,52.6,30.02,SSW,198,0.0,4.0,78,0.00,,,0.00,Wunderground v.1.15,2013-05-26 16:57:00,
2013-05-26 10:02:00,60.4,52.8,30.02,SSE,159,0.0,2.0,76,0.00,,,0.00,Wunderground v.1.15,2013-05-26 17:02:00,
2013-05-26 10:07:00,60.9,52.2,30.02,North,359,5.0,6.0,73,0.00,,,0.00,Wunderground v.1.15,2013-05-26 17:07:00,
2013-05-26 10:12:00,59.8,52.2,30.02,WSW,253,0.0,6.0,76,0.00,,,0.00,Wunderground v.1.15,2013-05-26 17:12:00,
2013-05-26 10:17:00,59.6,52.4,30.02,North,353,4.0,6.0,77,0.00,,,0.00,Wunderground v.1.15,2013-05-26 17:17:00,
2013-05-26 10:22:00,60.1,52.9,30.02,WSW,245,0.0,4.0,77,0.00,,,0.00,Wunderground v.1.15,2013-05-26 17:22:00,
2013-05-26 10:27:00,60.4,53.2,30.02,SSE,147,0.0,5.0,77,0.00,,,0.00,Wunderground v.1.15,2013-05-26 17:27:00,
2013-05-26 10:32:00,59.8,52.9,30.02,NW,326,5.0,6.0,78,0.00,,,0.00,Wunderground v.1.15,2013-05-26 17:32:00,
2013-05-26 10:37:00,58.6,52.8,30.02,North,359,3.0,6.0,81,0.00,,,0.00,Wunderground v.1.15,2013-05-26 17:37:00,
2013-05-26 10:42:00,58.3,52.8,30.02,NNE,33,2.0,7.0,82,0.00,,,0.00,Wunderground v.1.15,2013-05-26 17:42:00,
2013-05-26 10:47:00,58.3,52.8,30.02,North,1,4.0,12.0,82,0.00,,,0.00,Wunderground v.1.15,2013-05-26 17:47:00,
2013-05-26 10:52:00,58.4,52.9,30.02,North,11,3.0,7.0,82,0.00,,,0.00,Wunderground v.1.15,2013-05-26 17:52:00,
2013-05-26 10:57:00,58.1,52.6,30.02,SE,136,1.0,11.0,82,0.00,,,0.00,Wunderground v.1.15,2013-05-26 17:57:00,
2013-05-26 11:02:00,59.0,53.2,30.02,NNW,327,0.0,4.0,81,0.00,,,0.00,Wunderground v.1.15,2013-05-26 18:02:00,
2013-05-26 11:07:00,59.9,53.4,30.02,SSE,166,0.0,5.0,79,0.00,,,0.00,Wunderground v.1.15,2013-05-26 18:07:00,
2013-05-26 11:12:00,60.2,53.0,30.02,North,0,3.0,10.0,77,0.00,,,0.00,Wunderground v.1.15,2013-05-26 18:12:00,
2013-05-26 11:17:00,60.1,53.2,30.01,North,349,1.0,11.0,78,0.00,,,0.00,Wunderground v.1.15,2013-05-26 18:17:00,
2013-05-26 11:22:00,59.6,53.1,30.01,East,101,0.0,6.0,79,0.00,,,0.00,Wunderground v.1.15,2013-05-26 18:22:00,
2013-05-26 11:27:00,60.7,54.1,30.01,SSE,154,0.0,6.0,79,0.00,,,0.00,Wunderground v.1.15,2013-05-26 18:27:00,
2013-05-26 11:32:00,61.2,53.9,30.01,South,183,1.0,3.0,77,0.00,,,0.00,Wunderground v.1.15,2013-05-26 18:32:00,
2013-05-26 11:37:00,61.3,53.7,30.01,NNW,330,0.0,4.0,76,0.00,,,0.00,Wunderground v.1.15,2013-05-26 18:37:00,
2013-05-26 11:42:00,62.0,54.3,30.01,North,0,0.0,2.0,76,0.00,,,0.00,Wunderground v.1.15,2013-05-26 18:42:00,
2013-05-26 11:47:00,62.4,54.4,30.01,NNE,18,0.0,6.0,75,0.00,,,0.00,Wunderground v.1.15,2013-05-26 18:47:00,
2013-05-26 11:52:00,62.6,54.2,30.01,West,268,4.0,5.0,74,0.00,,,0.00,Wunderground v.1.15,2013-05-26 18:52:00,
2013-05-26 11:57:00,61.8,54.2,30.01,SW,217,0.0,6.0,76,0.00,,,0.00,Wunderground v.1.15,2013-05-26 18:57:00,
2013-05-26 12:02:00,62.3,54.3,30.01,NE,40,0.0,6.0,75,0.00,,,0.00,Wunderground v.1.15,2013-05-26 19:02:00,
2013-05-26 12:07:00,62.4,54.0,30.01,NNE,27,1.0,7.0,74,0.00,,,0.00,Wunderground v.1.15,2013-05-26 19:07:00,
2013-05-26 12:12:00,62.1,54.1,30.01,West,259,1.0,5.0,75,0.00,,,0.00,Wunderground v.1.15,2013-05-26 19:12:00,
2013-05-26 12:17:00,62.7,54.3,30.01,SW,220,0.0,5.0,74,0.00,,,0.00,Wunderground v.1.15,2013-05-26 19:17:00,
2013-05-26 12:22:00,63.4,54.2,30.01,SE,128,3.0,5.0,72,0.00,,,0.00,Wunderground v.1.15,2013-05-26 19:22:00,
2013-05-26 12:27:00,63.5,54.3,30.01,SSE,162,0.0,6.0,72,0.00,,,0.00,Wunderground v.1.15,2013-05-26 19:27:00,
2013-05-26 12:32:00,63.7,54.5,30.00,NNE,27,0.0,3.0,72,0.00,,,0.00,Wunderground v.1.15,2013-05-26 19:32:00,
2013-05-26 12:37:00,63.9,54.3,30.00,SE,145,2.0,6.0,71,0.00,,,0.00,Wunderground v.1.15,2013-05-26 19:37:00,
2013-05-26 12:42:00,63.5,54.3,30.00,WNW,300,6.0,9.0,72,0.00,,,0.00,Wunderground v.1.15,2013-05-26 19:42:00,
2013-05-26 12:47:00,62.7,53.5,30.00,NNW,347,3.0,10.0,72,0.00,,,0.00,Wunderground v.1.15,2013-05-26 19:47:00,
2013-05-26 12:52:00,63.1,53.9,30.00,ENE,74,1.0,10.0,72,0.00,,,0.00,Wunderground v.1.15,2013-05-26 19:52:00,
2013-05-26 12:57:00,63.5,53.9,30.00,NW,323,0.0,10.0,71,0.00,,,0.00,Wunderground v.1.15,2013-05-26 19:57:00,
2013-05-26 13:02:00,64.3,54.3,29.99,SSE,156,2.0,6.0,70,0.00,,,0.00,Wunderground v.1.15,2013-05-26 20:02:00,
2013-05-26 13:07:00,64.7,54.3,29.99,NNW,334,0.0,9.0,69,0.00,,,0.00,Wunderground v.1.15,2013-05-26 20:07:00,
2013-05-26 13:12:00,64.8,54.4,29.99,SSW,200,3.0,9.0,69,0.00,,,0.00,Wunderground v.1.15,2013-05-26 20:12:00,
2013-05-26 13:17:00,64.5,54.5,30.00,SSW,193,2.0,11.0,70,0.00,,,0.00,Wunderground v.1.15,2013-05-26 20:17:00,
2013-05-26 13:22:00,64.0,54.0,30.00,West,260,1.0,5.0,70,0.00,,,0.00,Wunderground v.1.15,2013-05-26 20:22:00,
2013-05-26 13:27:00,64.8,54.4,30.00,North,359,0.0,7.0,69,0.00,,,0.00,Wunderground v.1.15,2013-05-26 20:27:00,
2013-05-26 13:32:00,64.7,54.3,29.99,SSE,158,0.0,3.0,69,0.00,,,0.00,Wunderground v.1.15,2013-05-26 20:32:00,
2013-05-26 13:37:00,63.9,54.3,29.99,SW,233,2.0,12.0,71,0.00,,,0.00,Wunderground v.1.15,2013-05-26 20:37:00,
2013-05-26 13:42:00,63.7,54.5,29.99,ENE,66,2.0,4.0,72,0.00,,,0.00,Wunderground v.1.15,2013-05-26 20:42:00,
2013-05-26 13:47:00,63.9,54.3,30.00,SW,228,2.0,6.0,71,0.00,,,0.00,Wunderground v.1.15,2013-05-26 20:47:00,
2013-05-26 13:52:00,63.9,54.7,30.00,NNE,29,1.0,7.0,72,0.00,,,0.00,Wunderground v.1.15,2013-05-26 20:52:00,
2013-05-26 13:57:00,63.4,53.4,30.00,SSW,204,14.0,14.0,70,0.00,,,0.00,Wunderground v.1.15,2013-05-26 20:57:00,
2013-05-26 14:02:00,62.7,53.9,29.99,WNW,290,5.0,7.0,73,0.00,,,0.00,Wunderground v.1.15,2013-05-26 21:02:00,
2013-05-26 14:07:00,63.1,53.9,29.99,WSW,239,3.0,7.0,72,0.00,,,0.00,Wunderground v.1.15,2013-05-26 21:07:00,
2013-05-26 14:12:00,63.1,54.3,29.99,NW,319,3.0,10.0,73,0.00,,,0.00,Wunderground v.1.15,2013-05-26 21:12:00,
2013-05-26 14:17:00,63.5,54.3,29.98,NNE,13,5.0,11.0,72,0.00,,,0.00,Wunderground v.1.15,2013-05-26 21:17:00,
2013-05-26 14:22:00,63.4,53.8,29.98,NNW,333,3.0,5.0,71,0.00,,,0.00,Wunderground v.1.15,2013-05-26 21:22:00,
2013-05-26 14:27:00,63.7,54.5,29.98,NNW,340,2.0,5.0,72,0.00,,,0.00,Wunderground v.1.15,2013-05-26 21:27:00,
2013-05-26 14:32:00,63.7,54.1,29.99,SE,141,3.0,4.0,71,0.00,,,0.00,Wunderground v.1.15,2013-05-26 21:32:00,
2013-05-26 14:37:00,63.4,54.2,29.99,South,188,3.0,7.0,72,0.00,,,0.00,Wunderground v.1.15,2013-05-26 21:37:00,
2013-05-26 14:42:00,63.1,54.3,29.99,South,173,2.0,4.0,73,0.00,,,0.00,Wunderground v.1.15,2013-05-26 21:42:00,
2013-05-26 14:47:00,63.1,54.3,29.99,WNW,303,1.0,7.0,73,0.00,,,0.00,Wunderground v.1.15,2013-05-26 21:47:00,
2013-05-26 14:52:00,62.7,53.9,29.99,ESE,104,1.0,7.0,73,0.00,,,0.00,Wunderground v.1.15,2013-05-26 21:52:00,
2013-05-26 14:57:00,62.4,54.0,29.99,North,8,1.0,8.0,74,0.00,,,0.00,Wunderground v.1.15,2013-05-26 21:57:00,
2013-05-26 15:02:00,62.4,54.4,29.98,South,175,3.0,4.0,75,0.00,,,0.00,Wunderground v.1.15,2013-05-26 22:02:00,
2013-05-26 15:07:00,62.3,53.9,29.98,SE,141,3.0,7.0,74,0.00,,,0.00,Wunderground v.1.15,2013-05-26 22:07:00,
2013-05-26 15:12:00,62.0,54.0,29.98,North,1,1.0,10.0,75,0.00,,,0.00,Wunderground v.1.15,2013-05-26 22:12:00,
2013-05-26 15:17:00,61.8,53.8,29.98,SSE,148,4.0,10.0,75,0.00,,,0.00,Wunderground v.1.15,2013-05-26 22:17:00,
2013-05-26 15:22:00,61.3,53.7,29.98,SSE,159,2.0,10.0,76,0.00,,,0.00,Wunderground v.1.15,2013-05-26 22:22:00,
2013-05-26 15:27:00,61.2,53.9,29.98,North,359,0.0,10.0,77,0.00,,,0.00,Wunderground v.1.15,2013-05-26 22:27:00,
2013-05-26 15:32:00,61.0,54.1,29.98,NNW,347,2.0,7.0,78,0.00,,,0.00,Wunderground v.1.15,2013-05-26 22:32:00,
2013-05-26 15:37:00,61.2,53.9,29.98,SW,217,0.0,7.0,77,0.00,,,0.00,Wunderground v.1.15,2013-05-26 22:37:00,
2013-05-26 15:42:00,61.0,54.1,29.98,SSW,213,3.0,5.0,78,0.00,,,0.00,Wunderground v.1.15,2013-05-26 22:42:00,
2013-05-26 15:47:00,61.2,54.3,29.98,NNW,345,3.0,6.0,78,0.00,,,0.00,Wunderground v.1.15,2013-05-26 22:47:00,
2013-05-26 15:52:00,61.0,53.7,29.98,SE,134,2.0,12.0,77,0.00,,,0.00,Wunderground v.1.15,2013-05-26 22:52:00,
2013-05-26 15:57:00,61.2,53.9,29.98,SSE,150,2.0,12.0,77,0.00,,,0.00,Wunderground v.1.15,2013-05-26 22:57:00,
2013-05-26 16:02:00,60.9,54.0,29.98,NNW,335,5.0,9.0,78,0.00,,,0.00,Wunderground v.1.15,2013-05-26 23:02:00,
2013-05-26 16:07:00,60.5,53.6,29.98,North,0,1.0,9.0,78,0.00,,,0.00,Wunderground v.1.15,2013-05-26 23:07:00,
2013-05-26 16:12:00,60.5,53.6,29.98,ESE,106,0.0,9.0,78,0.00,,,0.00,Wunderground v.1.15,2013-05-26 23:12:00,
2013-05-26 16:17:00,60.4,53.9,29.97,ESE,121,2.0,9.0,79,0.00,,,0.00,Wunderground v.1.15,2013-05-26 23:17:00,
2013-05-26 16:22:00,60.4,53.9,29.97,NNW,334,1.0,9.0,79,0.00,,,0.00,Wunderground v.1.15,2013-05-26 23:22:00,
2013-05-26 16:27:00,60.4,53.9,29.97,SSE,163,1.0,9.0,79,0.00,,,0.00,Wunderground v.1.15,2013-05-26 23:27:00,
2013-05-26 16:32:00,60.1,53.9,29.98,East,79,2.0,5.0,80,0.00,,,0.00,Wunderground v.1.15,2013-05-26 23:32:00,
2013-05-26 16:37:00,60.1,53.9,29.98,SSE,151,1.0,10.0,80,0.00,,,0.00,Wunderground v.1.15,2013-05-26 23:37:00,
2013-05-26 16:42:00,59.6,53.4,29.98,NNW,337,4.0,13.0,80,0.00,,,0.00,Wunderground v.1.15,2013-05-26 23:42:00,
2013-05-26 16:47:00,59.5,53.7,29.98,West,273,4.0,13.0,81,0.00,,,0.00,Wunderground v.1.15,2013-05-26 23:47:00,
2013-05-26 16:52:00,59.3,53.8,29.98,NNE,22,0.0,5.0,82,0.00,,,0.00,Wunderground v.1.15,2013-05-26 23:52:00,
2013-05-26 16:57:00,59.3,53.5,29.98,SSE,159,4.0,5.0,81,0.00,,,0.00,Wunderground v.1.15,2013-05-26 23:57:00,
2013-05-26 17:02:00,59.0,53.2,29.98,SE,134,3.0,7.0,81,0.00,,,0.00,Wunderground v.1.15,2013-05-27 00:02:00,
2013-05-26 17:07:00,58.6,53.5,29.98,ENE,72,2.0,7.0,83,0.00,,,0.00,Wunderground v.1.15,2013-05-27 00:07:00,
2013-05-26 17:12:00,58.1,53.0,29.98,North,356,0.0,4.0,83,0.00,,,0.00,Wunderground v.1.15,2013-05-27 00:12:00,
2013-05-26 17:17:00,57.6,52.8,29.98,WNW,282,1.0,8.0,84,0.00,,,0.00,Wunderground v.1.15,2013-05-27 00:17:00,
2013-05-26 17:22:00,56.9,52.8,29.98,SSE,166,2.0,4.0,86,0.00,,,0.00,Wunderground v.1.15,2013-05-27 00:22:00,
2013-05-26 17:27:00,56.5,52.7,29.98,South,183,0.0,7.0,87,0.00,,,0.00,Wunderground v.1.15,2013-05-27 00:27:00,
2013-05-26 17:32:00,56.0,52.5,29.98,West,278,0.0,6.0,88,0.00,,,0.00,Wunderground v.1.15,2013-05-27 00:32:00,
2013-05-26 17:37:00,55.6,52.4,29.98,SE,128,0.0,6.0,89,0.00,,,0.00,Wunderground v.1.15,2013-05-27 00:37:00,
2013-05-26 17:42:00,55.3,52.4,29.98,WNW,288,3.0,5.0,90,0.00,,,0.00,Wunderground v.1.15,2013-05-27 00:42:00,
2013-05-26 17:47:00,55.3,52.4,29.98,East,94,2.0,5.0,90,0.00,,,0.00,Wunderground v.1.15,2013-05-27 00:47:00,
2013-05-26 17:52:00,55.1,52.2,29.98,ESE,123,2.0,6.0,90,0.00,,,0.00,Wunderground v.1.15,2013-05-27 00:52:00,
2013-05-26 17:57:00,54.7,52.1,29.98,NE,34,3.0,10.0,91,0.00,,,0.00,Wunderground v.1.15,2013-05-27 00:57:00,
2013-05-26 18:02:00,54.4,52.1,29.99,NNW,344,3.0,7.0,92,0.00,,,0.00,Wunderground v.1.15,2013-05-27 01:02:00,
2013-05-26 18:07:00,54.4,52.1,29.99,ENE,58,1.0,7.0,92,0.00,,,0.00,Wunderground v.1.15,2013-05-27 01:07:00,
2013-05-26 18:12:00,54.4,52.1,29.99,SE,138,2.0,3.0,92,0.00,,,0.00,Wunderground v.1.15,2013-05-27 01:12:00,
2013-05-26 18:17:00,54.4,52.1,29.99,ENE,69,1.0,5.0,92,0.00,,,0.00,Wunderground v.1.15,2013-05-27 01:17:00,
2013-05-26 18:22:00,54.1,51.8,29.99,NNE,28,2.0,4.0,92,0.00,,,0.00,Wunderground v.1.15,2013-05-27 01:22:00,
2013-05-26 18:27:00,53.8,51.8,29.99,ENE,73,2.0,10.0,93,0.00,,,0.00,Wunderground v.1.15,2013-05-27 01:27:00,
2013-05-26 18:32:00,53.6,51.9,30.00,NE,56,0.0,3.0,94,0.00,,,0.00,Wunderground v.1.15,2013-05-27 01:32:00,
2013-05-26 18:37:00,53.6,51.9,30.00,ENE,63,0.0,5.0,94,0.00,,,0.00,Wunderground v.1.15,2013-05-27 01:37:00,
2013-05-26 18:42:00,53.5,52.1,30.00,ESE,117,1.0,3.0,95,0.00,,,0.00,Wunderground v.1.15,2013-05-27 01:42:00,
2013-05-26 18:47:00,53.5,52.1,30.00,NW,304,0.0,4.0,95,0.00,,,0.00,Wunderground v.1.15,2013-05-27 01:47:00,
2013-05-26 18:52:00,53.5,52.4,30.00,East,94,0.0,2.0,96,0.00,,,0.00,Wunderground v.1.15,2013-05-27 01:52:00,
2013-05-26 18:57:00,53.5,52.4,30.00,NNE,18,1.0,3.0,96,0.00,,,0.00,Wunderground v.1.15,2013-05-27 01:57:00,
2013-05-26 19:02:00,53.2,52.1,30.00,WNW,302,0.0,4.0,96,0.00,,,0.00,Wunderground v.1.15,2013-05-27 02:02:00,
2013-05-26 19:07:00,53.1,52.0,30.00,North,352,1.0,4.0,96,0.00,,,0.00,Wunderground v.1.15,2013-05-27 02:07:00,
2013-05-26 19:12:00,53.1,52.0,30.00,SE,141,1.0,6.0,96,0.00,,,0.00,Wunderground v.1.15,2013-05-27 02:12:00,
2013-05-26 19:17:00,53.1,52.3,30.00,ENE,75,0.0,6.0,97,0.00,,,0.00,Wunderground v.1.15,2013-05-27 02:17:00,
2013-05-26 19:22:00,53.1,52.3,30.00,ESE,119,0.0,8.0,97,0.00,,,0.00,Wunderground v.1.15,2013-05-27 02:22:00,
2013-05-26 19:27:00,52.9,52.1,30.00,North,10,5.0,11.0,97,0.00,,,0.00,Wunderground v.1.15,2013-05-27 02:27:00,
2013-05-26 19:32:00,52.9,52.1,30.00,SSE,155,1.0,5.0,97,0.00,,,0.00,Wunderground v.1.15,2013-05-27 02:32:00,
2013-05-26 19:37:00,52.9,52.4,30.00,SW,236,0.0,6.0,98,0.00,,,0.00,Wunderground v.1.15,2013-05-27 02:37:00,
2013-05-26 19:42:00,52.9,52.4,30.00,NNE,25,0.0,3.0,98,0.00,,,0.00,Wunderground v.1.15,2013-05-27 02:42:00,
2013-05-26 19:47:00,52.9,52.4,30.00,ENE,71,0.0,5.0,98,0.00,,,0.00,Wunderground v.1.15,2013-05-27 02:47:00,
2013-05-26 19:52:00,52.9,52.4,30.00,SSE,165,2.0,2.0,98,0.00,,,0.00,Wunderground v.1.15,2013-05-27 02:52:00,
2013-05-26 19:57:00,52.8,52.3,30.00,NE,48,0.0,6.0,98,0.00,,,0.00,Wunderground v.1.15,2013-05-27 02:57:00,
2013-05-26 20:02:00,52.8,52.3,30.00,North,356,0.0,4.0,98,0.00,,,0.00,Wunderground v.1.15,2013-05-27 03:02:00,
2013-05-26 20:07:00,52.6,52.1,30.00,East,83,1.0,6.0,98,0.00,,,0.00,Wunderground v.1.15,2013-05-27 03:07:00,
2013-05-26 20:12:00,52.6,52.3,30.00,ESE,120,2.0,3.0,99,0.00,,,0.00,Wunderground v.1.15,2013-05-27 03:12:00,
2013-05-26 20:17:00,52.6,52.3,30.00,SW,227,2.0,3.0,99,0.00,,,0.00,Wunderground v.1.15,2013-05-27 03:17:00,
2013-05-26 20:22:00,52.5,52.2,30.00,WNW,290,2.0,4.0,99,0.00,,,0.00,Wunderground v.1.15,2013-05-27 03:22:00,
2013-05-26 20:27:00,52.5,52.2,30.00,West,275,4.0,4.0,99,0.00,,,0.00,Wunderground v.1.15,2013-05-27 03:27:00,
2013-05-26 20:32:00,52.3,52.0,30.00,North,0,0.0,7.0,99,0.00,,,0.00,Wunderground v.1.15,2013-05-27 03:32:00,
2013-05-26 20:37:00,52.3,52.0,30.00,NNE,13,0.0,7.0,99,0.00,,,0.00,Wunderground v.1.15,2013-05-27 03:37:00,
2013-05-26 20:42:00,52.2,51.9,30.00,North,1,2.0,6.0,99,0.00,,,0.00,Wunderground v.1.15,2013-05-27 03:42:00,
2013-05-26 20:47:00,52.2,52.2,30.00,North,359,0.0,6.0,100,0.00,,,0.00,Wunderground v.1.15,2013-05-27 03:47:00,
2013-05-26 20:52:00,52.2,52.2,30.00,WNW,296,2.0,4.0,100,0.00,,,0.00,Wunderground v.1.15,2013-05-27 03:52:00,
2013-05-26 20:57:00,52.0,52.0,30.00,ENE,60,1.0,5.0,100,0.00,,,0.00,Wunderground v.1.15,2013-05-27 03:57:00,
2013-05-26 21:01:00,52.0,52.0,30.00,ENE,58,0.0,2.0,100,0.00,,,0.00,Wunderground v.1.15,2013-05-27 04:01:00,
2013-05-26 21:06:00,52.2,52.2,30.00,NE,47,1.0,8.0,100,0.00,,,0.00,Wunderground v.1.15,2013-05-27 04:06:00,
2013-05-26 21:11:00,52.2,52.2,30.00,SW,219,0.0,1.0,100,0.00,,,0.00,Wunderground v.1.15,2013-05-27 04:11:00,
2013-05-26 21:16:00,52.2,52.2,30.01,WNW,297,0.0,5.0,100,0.00,,,0.00,Wunderground v.1.15,2013-05-27 04:16:00,
2013-05-26 21:21:00,52.2,52.2,30.01,WNW,284,0.0,1.0,100,0.00,,,0.00,Wunderground v.1.15,2013-05-27 04:21:00,
2013-05-26 21:26:00,52.3,52.3,30.01,SW,225,0.0,3.0,100,0.00,,,0.00,Wunderground v.1.15,2013-05-27 04:26:00,
2013-05-26 21:31:00,52.3,52.3,30.01,NNW,347,0.0,1.0,100,0.00,,,0.00,Wunderground v.1.15,2013-05-27 04:31:00,
2013-05-26 21:36:00,52.3,52.3,30.01,NW,326,0.0,6.0,100,0.00,,,0.00,Wunderground v.1.15,2013-05-27 04:36:00,
2013-05-26 21:41:00,52.3,52.3,30.01,North,358,0.0,2.0,100,0.00,,,0.00,Wunderground v.1.15,2013-05-27 04:41:00,
2013-05-26 21:46:00,52.3,52.3,30.01,North,358,1.0,2.0,100,0.00,,,0.00,Wunderground v.1.15,2013-05-27 04:46:00,
2013-05-26 21:51:00,52.3,52.3,30.01,NW,312,0.0,1.0,100,0.00,,,0.00,Wunderground v.1.15,2013-05-27 04:51:00,
2013-05-26 21:56:00,52.5,52.5,30.01,East,79,0.0,2.0,100,0.00,,,0.00,Wunderground v.1.15,2013-05-27 04:56:00,
2013-05-26 22:01:00,52.5,52.5,30.01,East,79,0.0,0.0,100,0.00,,,0.00,Wunderground v.1.15,2013-05-27 05:01:00,
2013-05-26 22:06:00,52.5,52.5,30.01,East,79,0.0,0.0,100,0.00,,,0.00,Wunderground v.1.15,2013-05-27 05:06:00,
2013-05-26 22:11:00,52.5,52.5,30.01,East,79,0.0,1.0,100,0.00,,,0.00,Wunderground v.1.15,2013-05-27 05:11:00,
2013-05-26 22:16:00,52.5,52.5,30.02,East,79,0.0,1.0,100,0.00,,,0.00,Wunderground v.1.15,2013-05-27 05:16:00,
2013-05-26 22:21:00,52.5,52.5,30.02,East,79,0.0,0.0,100,0.00,,,0.00,Wunderground v.1.15,2013-05-27 05:21:00,
2013-05-26 22:26:00,52.3,52.3,30.02,East,79,0.0,1.0,100,0.00,,,0.00,Wunderground v.1.15,2013-05-27 05:26:00,
2013-05-26 22:31:00,52.3,52.3,30.03,East,79,0.0,0.0,100,0.00,,,0.00,Wunderground v.1.15,2013-05-27 05:31:00,
2013-05-26 22:36:00,52.5,52.5,30.03,East,79,0.0,0.0,100,0.00,,,0.00,Wunderground v.1.15,2013-05-27 05:36:00,
2013-05-26 22:41:00,52.5,52.5,30.03,East,79,0.0,0.0,100,0.00,,,0.00,Wunderground v.1.15,2013-05-27 05:41:00,
2013-05-26 22:46:00,52.5,52.5,30.03,East,79,0.0,1.0,100,0.00,,,0.00,Wunderground v.1.15,2013-05-27 05:46:00,
2013-05-26 22:51:00,52.5,52.5,30.03,East,79,0.0,0.0,100,0.00,,,0.00,Wunderground v.1.15,2013-05-27 05:51:00,
2013-05-26 22:56:00,52.5,52.5,30.03,East,79,0.0,0.0,100,0.00,,,0.00,Wunderground v.1.15,2013-05-27 05:56:00,
2013-05-26 23:01:00,52.3,52.3,30.03,East,79,0.0,2.0,100,0.00,,,0.00,Wunderground v.1.15,2013-05-27 06:01:00,
2013-05-26 23:06:00,52.3,52.3,30.03,East,79,0.0,2.0,100,0.00,,,0.00,Wunderground v.1.15,2013-05-27 06:06:00,
2013-05-26 23:11:00,52.3,52.3,30.03,East,79,0.0,0.0,100,0.00,,,0.00,Wunderground v.1.15,2013-05-27 06:11:00,
2013-05-26 23:16:00,52.3,52.3,30.03,East,79,0.0,1.0,100,0.00,,,0.00,Wunderground v.1.15,2013-05-27 06:16:00,
2013-05-26 23:21:00,52.3,52.3,30.03,East,79,0.0,1.0,100,0.00,,,0.00,Wunderground v.1.15,2013-05-27 06:21:00,
2013-05-26 23:26:00,52.3,52.3,30.03,East,79,0.0,1.0,100,0.00,,,0.00,Wunderground v.1.15,2013-05-27 06:26:00,
2013-05-26 23:31:00,52.5,52.5,30.03,East,79,0.0,0.0,100,0.00,,,0.00,Wunderground v.1.15,2013-05-27 06:31:00,
2013-05-26 23:36:00,52.5,52.5,30.03,East,79,0.0,0.0,100,0.00,,,0.00,Wunderground v.1.15,2013-05-27 06:36:00,
2013-05-26 23:41:00,52.5,52.5,30.03,East,79,0.0,0.0,100,0.00,,,0.00,Wunderground v.1.15,2013-05-27 06:41:00,
2013-05-26 23:46:00,52.5,52.5,30.03,East,79,0.0,0.0,100,0.00,,,0.00,Wunderground v.1.15,2013-05-27 06:46:00,
2013-05-26 23:51:00,52.5,52.5,30.03,East,79,0.0,0.0,100,0.00,,,0.00,Wunderground v.1.15,2013-05-27 06:51:00,
2013-05-26 23:56:00,52.5,52.5,30.03,East,79,0.0,0.0,100,0.00,,,0.00,Wunderground v.1.15,2013-05-27 06:56:00,